Latest Weather Observations for Lucinda

IDQ60801

Issued at 7:32 pm EST Saturday 1 August 2015 (issued every 30 minutes, with the page automatically refreshed every 10 minutes)

About weather observations | Map of weather stations | Latest weather observations for QLD | Other Formats
Station Details ID: 032141 Name: LUCINDA POINT Lat: -18.52 Lon: 146.39 Height: 10.0 m
Data from the previous 72 hours. | See also: Recent months at Lucinda
Date/Time
EST
Temp
°C
App
Temp
°C
Dew
Point
Rel
Hum
%
Delta-T
°C
Wind Press
QNH
hPa
Press
MSL
hPa
Rain
since 9 am
mm
Dir
 
Spd
km/h
Gust
km/h
Spd
kts
Gust
kts
01/07:30pm 21.6 21.4 17.6 78 2.5 SE 15 26 8 14 1018.9 1018.9 0.0
01/07:00pm 21.7 21.2 17.7 78 2.5 ESE 17 30 9 16 1018.5 1018.5 0.0
01/06:30pm 21.7 21.1 17.5 77 2.6 SE 17 30 9 16 1018.3 1018.3 0.0
01/06:00pm 21.9 21.7 17.5 76 2.7 SE 15 26 8 14 1018.1 1018.1 0.0
01/05:30pm 21.9 21.0 16.8 73 3.1 E 17 26 9 14 1017.9 1017.9 0.0
01/05:00pm 22.2 21.7 16.9 72 3.2 SE 15 26 8 14 1017.8 1017.8 0.0
01/04:30pm 22.7 22.3 17.2 71 3.4 SE 15 22 8 12 1017.9 1017.9 0.0
01/04:00pm 22.5 21.5 16.5 69 3.6 SE 17 24 9 13 1018.0 1018.0 0.0
01/03:30pm 22.5 21.7 16.1 67 3.9 SE 15 22 8 12 1018.0 1018.0 0.0
01/03:00pm 22.3 22.4 16.6 70 3.5 S 11 20 6 11 1018.1 1018.1 0.0
01/02:30pm 22.5 22.6 16.5 69 3.7 SSE 11 19 6 10 1018.4 1018.4 0.0
01/02:00pm 21.8 19.6 17.0 74 2.9 S 24 28 13 15 1018.8 1018.8 0.0
01/01:30pm 21.9 19.4 16.2 70 3.4 S 24 30 13 16 1019.4 1019.4 0.0
01/01:00pm 21.8 19.4 16.3 71 3.3 S 24 28 13 15 1020.0 1020.0 0.0
01/12:30pm 21.4 18.5 16.1 72 3.2 S 26 30 14 16 1020.5 1020.5 0.0
01/12:00pm 21.3 18.6 16.5 74 2.9 S 26 30 14 16 1020.9 1020.9 0.0
01/11:30am 20.9 18.2 16.5 76 2.7 S 26 30 14 16 1021.3 1021.3 0.0
01/11:00am 20.8 18.6 16.8 78 2.4 S 24 30 13 16 1021.7 1021.7 0.0
01/10:30am 20.5 17.6 17.1 81 2.1 S 28 32 15 17 1021.7 1021.7 0.0
01/10:00am 20.7 17.5 17.3 81 2.1 S 30 33 16 18 1021.8 1021.8 0.0
01/09:30am 20.7 17.5 17.3 81 2.1 S 30 35 16 19 1021.7 1021.7 0.0
01/09:00am 21.2 19.5 17.2 78 2.4 S 22 32 12 17 1021.6 1021.6 0.0
01/08:30am 21.3 20.1 17.5 79 2.3 S 20 28 11 15 1021.1 1021.1 0.0
01/08:00am 21.6 20.5 16.3 72 3.2 S 17 26 9 14 1020.9 1020.9 0.0
01/07:30am 21.8 19.9 15.2 66 3.9 SE 19 33 10 18 1020.4 1020.4 0.0
01/07:00am 21.7 19.8 15.8 69 3.5 SE 20 32 11 17 1020.1 1020.1 0.0
01/06:30am 21.7 19.8 15.3 67 3.8 SE 19 30 10 16 1019.8 1019.8 0.0
01/06:00am 21.8 20.0 15.6 68 3.7 ESE 19 30 10 16 1019.6 1019.6 0.0
01/05:30am 21.8 19.9 15.2 66 3.9 SE 19 28 10 15 1019.2 1019.2 0.0
01/05:00am 21.9 20.1 15.5 67 3.8 SE 19 30 10 16 1019.0 1019.0 0.0
01/04:30am 21.8 20.3 15.4 67 3.8 SE 17 30 9 16 1018.7 1018.7 0.0
01/04:00am 21.6 20.1 15.4 68 3.7 SE 17 28 9 15 1018.7 1018.7 0.0
01/03:30am 21.9 20.1 15.5 67 3.8 ESE 19 32 10 17 1018.9 1018.9 0.0
01/03:00am 21.9 20.1 16.0 69 3.5 ESE 20 33 11 18 1018.9 1018.9 0.0
01/02:30am 21.9 19.2 15.7 68 3.7 SE 24 41 13 22 1018.7 1018.7 0.0
01/02:00am 21.9 20.4 16.8 73 3.1 SSE 20 37 11 20 1018.9 1018.9 0.0
01/01:30am 21.9 19.9 16.4 71 3.3 SE 22 37 12 20 1019.4 1019.4 0.0
01/01:00am 21.9 19.7 16.8 73 3.1 SE 24 43 13 23 1019.5 1019.5 0.0
01/12:30am 21.9 20.3 17.5 76 2.7 SE 22 41 12 22 1019.6 1019.6 0.0
01/12:00am 22.0 20.5 17.6 76 2.7 SE 22 35 12 19 1019.5 1019.5 0.0
 
Date/Time
EST
Temp
°C
App
Temp
°C
Dew
Point
Rel
Hum
%
Delta-T
°C
Wind Press
QNH
hPa
Press
MSL
hPa
Rain
since 9 am
mm
Dir
 
Spd
km/h
Gust
km/h
Spd
kts
Gust
kts
31/11:30pm 21.9 20.8 17.7 77 2.6 SE 20 32 11 17 1019.8 1019.8 0.0
31/11:00pm 22.0 21.0 17.6 76 2.7 ESE 19 32 10 17 1020.0 1020.0 0.0
31/10:30pm 22.1 21.1 17.5 75 2.8 ESE 19 32 10 17 1020.0 1020.0 0.0
31/10:00pm 22.2 20.8 16.9 72 3.2 ESE 20 33 11 18 1019.9 1019.9 0.0
31/09:30pm 22.2 21.5 16.5 70 3.5 ESE 15 26 8 14 1019.8 1019.8 0.0
31/09:00pm 22.0 21.6 17.2 74 2.9 SE 15 26 8 14 1019.8 1019.8 0.0
31/08:30pm 22.0 20.3 17.2 74 2.9 ESE 22 32 12 17 1019.4 1019.4 0.0
31/08:00pm 21.9 20.9 17.5 76 2.7 ESE 19 32 10 17 1019.0 1019.0 0.0
31/07:30pm 21.8 20.1 17.2 75 2.8 ESE 22 35 12 19 1018.7 1018.7 0.0
31/07:00pm 21.8 20.8 16.7 73 3.1 SE 17 28 9 15 1018.4 1018.4 0.0
31/06:30pm 21.8 20.2 16.5 72 3.2 ESE 20 32 11 17 1018.2 1018.2 0.0
31/06:00pm 21.8 20.5 16.7 73 3.1 ESE 19 30 10 16 1018.1 1018.1 0.0
31/05:30pm 22.0 21.0 16.5 71 3.3 ESE 17 28 9 15 1018.0 1018.0 0.0
31/05:00pm 22.4 22.7 17.8 75 2.9 SE 13 24 7 13 1017.9 1017.9 0.0
31/04:30pm 22.2 21.3 16.9 72 3.2 ESE 17 26 9 14 1017.8 1017.8 0.0
31/04:00pm 22.2 21.8 17.1 73 3.1 SE 15 24 8 13 1017.8 1017.8 0.0
31/03:30pm 22.3 21.8 17.0 72 3.2 ESE 15 28 8 15 1017.8 1017.8 0.0
31/03:00pm 22.4 20.2 15.0 63 4.4 SE 20 30 11 16 1018.0 1018.0 0.0
31/02:30pm 21.9 20.3 16.6 72 3.2 S 20 26 11 14 1018.3 1018.3 0.0
31/02:00pm 22.0 21.3 16.5 71 3.3 S 15 22 8 12 1018.6 1018.6 0.0
31/01:30pm 21.7 20.2 16.4 72 3.2 S 19 24 10 13 1019.2 1019.2 0.0
31/01:00pm 21.4 20.1 16.8 75 2.8 S 19 24 10 13 1019.7 1019.7 0.0
31/12:30pm 21.7 20.5 17.1 75 2.8 S 19 26 10 14 1020.2 1020.2 0.0
31/12:00pm 21.3 19.0 16.7 75 2.8 S 24 30 13 16 1020.7 1020.7 0.0
31/11:30am 21.2 19.6 16.6 75 2.8 S 20 28 11 15 1021.1 1021.1 0.0
31/11:00am 21.0 18.2 16.4 75 2.8 S 26 33 14 18 1021.5 1021.5 0.0
31/10:30am 21.2 19.8 16.6 75 2.8 S 19 26 10 14 1022.0 1022.0 0.0
31/10:00am 21.1 20.2 16.9 77 2.5 S 17 24 9 13 1022.1 1022.1 0.0
31/09:30am 20.8 19.2 16.4 76 2.7 S 20 26 11 14 1021.9 1021.9 0.0
31/09:00am 21.1 21.1 16.3 74 2.9 SSE 11 17 6 9 1021.7 1021.7 0.0
31/08:30am 20.8 20.3 16.0 74 2.9 S 13 20 7 11 1021.4 1021.4 0.0
31/08:00am 20.6 20.1 15.8 74 2.9 SSE 13 19 7 10 1021.0 1021.0 0.0
31/07:30am 20.3 19.6 16.5 79 2.3 S 15 22 8 12 1020.7 1020.7 0.0
31/07:00am 20.2 18.7 16.2 78 2.4 S 19 26 10 14 1020.4 1020.4 0.0
31/06:30am 20.3 18.7 16.5 79 2.3 S 20 32 11 17 1020.1 1020.1 0.0
31/06:00am 20.4 19.1 16.8 80 2.2 S 19 30 10 16 1020.0 1020.0 0.0
31/05:30am 20.5 19.3 17.1 81 2.1 S 19 32 10 17 1019.9 1019.9 0.0
31/05:00am 20.7 18.3 17.3 81 2.1 S 26 33 14 18 1019.8 1019.8 0.0
31/04:30am 20.7 17.7 16.9 79 2.3 S 28 35 15 19 1019.9 1019.9 0.0
31/04:00am 20.9 18.1 17.3 80 2.2 S 28 37 15 20 1020.0 1020.0 0.0
31/03:30am 21.6 20.5 17.2 76 2.7 SE 19 33 10 18 1019.9 1019.9 0.0
31/03:00am 21.4 19.3 16.1 72 3.2 SE 22 35 12 19 1020.0 1020.0 0.0
31/02:30am 21.4 18.7 16.6 74 2.9 SE 26 35 14 19 1020.1 1020.1 0.0
31/02:00am 21.6 20.0 17.4 77 2.6 SE 22 35 12 19 1020.3 1020.3 0.0
31/01:30am 21.6 19.8 17.0 75 2.8 SE 22 35 12 19 1020.8 1020.8 0.0
31/01:00am 21.7 19.8 16.6 73 3.1 SE 22 32 12 17 1021.0 1021.0 0.0
31/12:30am 21.7 20.4 17.3 76 2.7 SE 20 32 11 17 1021.1 1021.1 0.0
31/12:00am 21.7 21.3 17.1 75 2.8 SSE 15 24 8 13 1021.4 1021.4 0.0
 
Date/Time
EST
Temp
°C
App
Temp
°C
Dew
Point
Rel
Hum
%
Delta-T
°C
Wind Press
QNH
hPa
Press
MSL
hPa
Rain
since 9 am
mm
Dir
 
Spd
km/h
Gust
km/h
Spd
kts
Gust
kts
30/11:30pm 21.5 20.6 16.9 75 2.8 SE 17 28 9 15 1021.5 1021.5 0.0
30/11:00pm 21.7 20.0 17.3 76 2.7 SE 22 33 12 18 1021.5 1021.5 0.0
30/10:30pm 21.7 20.9 17.1 75 2.8 SE 17 26 9 14 1021.6 1021.6 0.0
30/10:00pm 21.8 20.4 17.0 74 2.9 SE 20 30 11 16 1021.5 1021.5 0.0
30/09:30pm 21.8 21.0 17.2 75 2.8 SE 17 30 9 16 1021.5 1021.5 0.0
30/09:00pm 21.8 20.6 17.0 74 2.9 ESE 19 30 10 16 1021.5 1021.5 0.0
30/08:30pm 21.7 21.1 17.5 77 2.6 SE 17 24 9 13 1021.2 1021.2 0.0
30/08:00pm 21.6 20.5 17.4 77 2.6 ESE 19 32 10 17 1020.7 1020.7 0.0
30/07:30pm 21.7 20.8 17.7 78 2.5 ESE 19 35 10 19 1020.4 1020.4 0.0
30/07:00pm 21.6 20.3 17.2 76 2.7 ESE 20 33 11 18 1020.2 1020.2 0.0
30/06:30pm 21.5 20.4 17.3 77 2.6 ESE 19 33 10 18 1020.1 1020.1 0.0
30/06:00pm 21.4 20.3 17.2 77 2.6 SE 19 28 10 15 1019.9 1019.9 0.0
30/05:30pm 21.6 21.1 17.8 79 2.4 SE 17 30 9 16 1019.9 1019.9 0.0
30/05:00pm 21.6 20.3 16.8 74 2.9 SE 19 30 10 16 1019.8 1019.8 0.0
30/04:30pm 22.1 21.1 16.6 71 3.3 ESE 17 26 9 14 1019.8 1019.8 0.0
30/04:00pm 22.0 21.5 16.9 73 3.1 ESE 15 26 8 14 1019.8 1019.8 0.0
30/03:30pm 22.2 21.4 16.2 69 3.6 SE 15 26 8 14 1019.7 1019.7 0.0
30/03:00pm 21.7 18.6 15.5 68 3.7 SE 26 39 14 21 1019.7 1019.7 0.0
30/02:30pm 21.9 19.7 16.0 69 3.6 SE 22 32 12 17 1020.0 1020.0 0.0
30/02:00pm 21.5 18.6 16.0 71 3.3 SSE 26 32 14 17 1020.6 1020.6 0.0
30/01:30pm 21.5 19.9 16.5 73 3.0 SSE 20 28 11 15 1020.9 1020.9 0.0
30/01:00pm 21.3 18.9 16.5 74 2.9 SSE 24 30 13 16 1021.4 1021.4 0.0
30/12:30pm 21.0 18.1 16.0 73 3.0 SSE 26 30 14 16 1021.8 1021.8 0.0
30/12:00pm 20.8 17.9 16.0 74 2.9 SSE 26 32 14 17 1022.3 1022.3 0.0
30/11:30am 20.6 17.0 16.2 76 2.6 SSE 30 37 16 20 1022.8 1022.8 0.0
30/11:00am 20.5 17.1 15.9 75 2.7 SSE 28 35 15 19 1023.1 1023.1 0.0
30/10:30am 20.5 17.8 16.5 78 2.4 S 26 32 14 17 1023.3 1023.3 0.0
30/10:00am 20.4 17.5 16.2 77 2.5 SSE 26 32 14 17 1023.6 1023.6 0.0
30/09:30am 20.2 17.2 15.8 76 2.6 S 26 32 14 17 1023.4 1023.4 0.0
30/09:00am 20.2 17.6 15.8 76 2.6 S 24 30 13 16 1023.0 1023.0 0.0
30/08:30am 20.3 18.2 16.3 78 2.4 S 22 30 12 16 1022.7 1022.7 0.0
30/08:00am 20.2 18.5 16.2 78 2.4 S 20 28 11 15 1022.6 1022.6 0.0
30/07:30am 20.1 18.0 16.1 78 2.4 S 22 30 12 16 1022.4 1022.4 0.0
30/07:00am 19.9 17.0 16.2 79 2.2 S 26 33 14 18 1022.1 1022.1 0.0
30/06:30am 20.0 18.1 15.8 77 2.5 S 20 30 11 16 1021.7 1021.7 0.0
30/06:00am 20.2 18.5 16.2 78 2.4 S 20 30 11 16 1021.5 1021.5 0.0
30/05:30am 20.2 18.3 16.6 80 2.2 S 22 32 12 17 1021.2 1021.2 0.0
30/05:00am 20.3 18.1 16.9 81 2.1 S 24 37 13 20 1021.2 1021.2 0.0
30/04:30am 20.2 16.8 16.8 81 2.1 S 30 39 16 21 1021.2 1021.2 0.0
30/04:00am 20.1 16.6 16.5 80 2.2 S 30 37 16 20 1021.1 1021.1 0.0
30/03:30am 20.3 16.3 16.7 80 2.2 S 33 43 18 23 1021.2 1021.2 0.0
30/03:00am 20.9 18.9 17.5 81 2.1 S 24 33 13 18 1021.3 1021.3 0.0
30/02:30am 21.2 20.1 17.4 79 2.3 S 19 32 10 17 1021.4 1021.4 0.0
30/02:00am 21.1 19.8 16.9 77 2.6 SSE 19 32 10 17 1021.8 1021.8 0.0
30/01:30am 21.3 20.1 17.5 79 2.3 S 20 33 11 18 1022.0 1022.0 0.0
30/01:00am 21.3 19.9 17.1 77 2.6 SSE 20 35 11 19 1022.1 1022.1 0.0
30/12:30am 21.4 19.2 16.8 75 2.8 SSE 24 41 13 22 1022.5 1022.5 0.0
30/12:02am 21.5 18.6 17.1 76 2.7 SE 28 46 15 25 1022.5 1022.5 0.0
30/12:00am 21.6 19.2 17.4 77 2.6 SE 26 46 14 25 1022.6 1022.6 0.0
 
Date/Time
EST
Temp
°C
App
Temp
°C
Dew
Point
Rel
Hum
%
Delta-T
°C
Wind Press
QNH
hPa
Press
MSL
hPa
Rain
since 9 am
mm
Dir
 
Spd
km/h
Gust
km/h
Spd
kts
Gust
kts
29/11:30pm 21.7 19.0 17.5 77 2.6 SE 28 44 15 24 1022.9 1022.9 0.0
29/11:20pm 21.7 19.0 17.5 77 2.6 SE 28 46 15 25 1022.9 1022.9 0.0
29/11:00pm 21.6 18.8 17.4 77 2.6 SE 28 43 15 23 1023.0 1023.0 0.0
29/10:43pm 21.7 19.0 17.5 77 2.6 SE 28 46 15 25 1023.1 1023.1 0.0
29/10:30pm 21.7 19.0 17.5 77 2.6 SE 28 46 15 25 1023.2 1023.2 0.0
29/10:00pm 21.7 20.0 18.1 80 2.2 SE 24 41 13 22 1023.3 1023.3 0.0
29/09:30pm 21.7 19.8 17.7 78 2.5 SE 24 41 13 22 1023.3 1023.3 0.0
29/09:00pm 21.8 19.5 17.6 77 2.6 SE 26 46 14 25 1023.3 1023.3 0.0
29/08:32pm 21.8 18.3 17.4 76 2.7 ESE 32 52 17 28 1022.8 1022.8 0.0
29/08:30pm 21.9 18.7 18.1 79 2.4 ESE 32 48 17 26 1022.8 1022.8 0.0
29/08:00pm 21.8 18.7 17.6 77 2.6 SE 30 48 16 26 1022.6 1022.6 0.0

Other Formats:

Comma delimited format used in spreadsheet applications
http://www.bom.gov.au/fwo/IDQ60801/IDQ60801.94295.axf

JavaScript Object Notation format (JSON) in row-major order
http://www.bom.gov.au/fwo/IDQ60801/IDQ60801.94295.json